Weather observations for the past three days for
Santa Barbara, Santa Barbara Municipal Airport
Metric (Imperial)
Date Time (pdt) Wind (kph) Vis. (km) Weather Sky Cond. Temperature (ºC) Relative Humidity Wind Chill (°C) Heat Index (°C) Pressure Precipitation (cm)
Air Dwpt 6 hour altimeter (cm) sea level (mb) 1 hr 3 hr 6 hr
Max. Min.
10 07:53 Calm 4.83 Fog/Mist OVC004 13.3 12.8 97% 76.02 1013.6
10 06:53 Calm 6.44 Fog/Mist OVC004 13.3 12.2 93% 76.02 1013.3
10 05:53 SE 9 9.66 Fog/Mist OVC004 13.3 12.2 93% 76 1013.2
10 04:53 E 7 8.05 Fog/Mist OVC004 13.3 12.8 13.9 12.8 97% 75.95 1012.5
10 03:53 E 7 8.05 Fog/Mist OVC004 13.3 12.2 93% 75.95 1012.5
10 02:53 Calm 9.66 Fog/Mist OVC005 12.8 12.2 96% 75.92 1012.2
10 01:53 N 7 8.05 Fog/Mist OVC004 13.3 12.8 97% 75.92 1012.2
10 00:53 E 6 4.83 Fog/Mist OVC004 13.9 13.3 96% 75.97 1012.7
09 23:53 Calm 2.41 Fog/Mist OVC002 13.9 13.3 96% 75.95 1012.6
09 22:53 E 9 4.83 Fog/Mist BKN003 13.9 12.8 18.3 13.3 93% 75.95 1012.3
09 21:53 E 6 12.87 Fair CLR 13.9 12.2 90% 75.92 1012.2
09 20:53 SE 9 12.87 Fair CLR 13.9 12.8 93% 75.9 1011.7
09 19:53 SE 7 16.09 Fair CLR 14.4 12.2 87% 75.84 1011.2
09 18:53 SE 9 12.87 Fair CLR 15 12.2 83% 75.84 1011.2
09 17:53 SE 11 14.48 Fair CLR 16.1 12.2 78% 75.87 1011.5
09 16:53 W 9 16.09 Fair CLR 17.8 12.8 18.3 15 73% 75.9 1011.8
09 15:53 SW 13 14.48 A Few Clouds with Haze FEW010 16.7 12.8 78% 75.95 1012.3
09 14:53 SW 13 9.66 Partly Cloudy with Haze SCT007 17.2 13.3 78% 75.97 1012.9
09 13:53 SE 9 9.66 Partly Cloudy with Haze SCT007 16.1 12.8 81% 76.02 1013.6
09 12:53 SE 15 9.66 Partly Cloudy with Haze SCT005 15.6 12.8 84% 76.05 1013.8
09 11:53 SE 15 12.87 Overcast OVC008 15.6 12.8 84% 76.1 1014.4
09 10:53 SE 15 9.66 Fog/Mist OVC005 15 12.8 15 12.8 87% 76.1 1014.5
09 09:53 SE 13 3.22 Fog/Mist OVC003 13.9 12.8 93% 76.07 1014.3
09 08:53 SE 11 3.22 Fog/Mist OVC004 13.9 12.8 93% 76.07 1014.2
09 07:53 E 6 3.22 Fog/Mist OVC003 13.3 12.8 97% 76.07 1014.1
09 06:53 N 6 3.22 Fog/Mist OVC003 12.8 12.2 96% 76.05 1013.7
09 05:53 Calm 0.80 Fog VV002 12.8 12.8 100% 76 1013.2
09 04:53 Calm 0.80 Fog VV002 12.8 12.8 13.9 11.1 100% 76 1013.1
09 03:53 Calm 2.01 Fog/Mist OVC003 12.8 12.2 96% 76.02 1013.4
09 02:53 Calm 12.87 Overcast OVC005 11.7 10.6 93% 76.02 1013.4
09 01:53 Calm 11.27 Mostly Cloudy BKN006 12.2 11.1 93% 76.02 1013.5
09 00:53 N 7 8.05 Fog/Mist SCT006 12.8 11.7 93% 76.05 1013.6
08 23:53 SE 7 6.44 Fog/Mist OVC004 13.9 12.8 93% 76.05 1013.8
08 22:53 Calm 11.27 Fair CLR 13.9 12.8 18.3 13.9 93% 76.07 1014.0
08 21:53 E 6 11.27 Fair CLR 13.9 12.8 93% 76.05 1013.8
08 20:53 SE 7 12.87 Fair CLR 14.4 12.8 90% 76 1013.2
08 19:53 SE 7 11.27 Fair CLR 14.4 12.8 90% 75.97 1012.9
08 18:53 SE 7 14.48 Fair CLR 16.1 12.8 81% 75.95 1012.6
08 17:53 SE 9 14.48 Fair CLR 17.2 12.8 76% 75.97 1012.9
08 16:53 S 11 14.48 Fair CLR 17.8 13.3 18.3 15.6 75% 76 1013.2
08 15:53 SW 13 16.09 A Few Clouds FEW013 18.3 13.3 73% 76.07 1014.0
08 14:53 SW 13 16.09 Mostly Cloudy FEW007 BKN017 18.3 12.8 70% 76.12 1014.9
08 13:53 SW 13 16.09 Overcast SCT007 OVC013 17.8 13.3 75% 76.17 1015.6
08 12:53 W 7 12.87 Overcast OVC008 17.2 13.9 81% 76.23 1016.2
08 11:53 SW 7 11.27 Overcast OVC008 16.1 13.3 84% 76.25 1016.4
08 10:53 S 7 11.27 Overcast OVC005 15.6 13.3 16.1 13.9 86% 76.28 1016.8
08 09:53 Vrbl 6 14.48 Overcast OVC007 15.6 12.8 84% 76.25 1016.6
08 08:53 Calm 12.87 Overcast OVC009 15.6 12.8 84% 76.25 1016.5
08 07:53 Calm 11.27 Overcast OVC007 15 12.8 87% 76.25 1016.7
08 06:53 Calm 11.27 Overcast OVC008 14.4 12.8 90% 76.25 1016.4
08 05:53 Calm 11.27 Overcast OVC007 14.4 12.8 90% 76.2 1015.9
08 04:53 E 11 9.66 Fog/Mist OVC007 14.4 13.3 15 13.3 93% 76.2 1015.7
08 03:53 E 13 11.27 Fair CLR 13.9 12.8 93% 76.15 1015.2
08 02:53 Calm 12.87 Fair CLR 13.3 12.2 93% 76.12 1014.9
08 01:53 NE 7 11.27 Fair CLR 13.9 12.2 90% 76.12 1014.9
08 00:53 E 7 12.87 Fair CLR 14.4 12.8 90% 76.12 1014.9
07 23:53 NE 11 12.87 Fair CLR 15 12.8 87% 76.12 1014.8
07 22:53 E 11 12.87 Fair CLR 15 13.3 17.8 14.4 90% 76.1 1014.4
07 21:53 SE 11 11.27 Fair CLR 15 13.3 90% 76.07 1014.1
07 20:53 SE 9 12.87 Fair CLR 15 13.3 90% 76.02 1013.5
07 19:53 SE 11 11.27 Fair CLR 15 13.3 90% 76 1013.2
07 18:53 SE 11 11.27 Fair CLR 15.6 13.3 86% 75.97 1012.9
07 17:53 SE 11 12.87 Fair CLR 16.7 12.8 78% 76 1013.3
07 16:53 SE 13 16.09 Fair CLR 17.8 12.8 21.1 17.2 73% 76.02 1013.6
07 15:53 SW 13 16.09 Fair CLR 21.1 12.8 59% 76.07 1014.0
07 14:53 SW 15 16.09 A Few Clouds FEW050 20 12.2 61% 76.12 1014.9
07 13:53 W 13 16.09 Fair CLR 19.4 12.2 63% 76.17 1015.6
07 12:53 SW 11 16.09 Fair CLR 20.6 12.8 61% 76.2 1015.8
07 11:53 SW 11 16.09 Fair CLR 19.4 12.8 66% 76.23 1016.2
07 10:53 Vrbl 9 16.09 Fair CLR 18.3 12.8 18.9 10.6 70% 76.23 1016.3
07 09:53 S 7 16.09 Fair CLR 17.8 12.2 70% 76.23 1016.2
07 08:53 S 6 16.09 Fair CLR 17.2 12.2 73% 76.25 1016.5
Date Time (pdt) Wind (kph) Vis. (km) Weather Sky Cond. Air Dwpt Max. Min. Relative Humidity Wind Chill (°C) Heat Index (°C) altimeter (cm) sea level (mb) 1 hr 3 hr 6 hr
6 hour
Temperature (ºC) Pressure Precipitation (cm)